createdAt,value
2017-12-23T00:00:57.838Z,95.11
2017-12-23T00:03:26.114Z,95.36
2017-12-23T00:05:54.431Z,95.55
2017-12-23T00:08:22.700Z,95.49
2017-12-23T00:10:51.003Z,95.30
2017-12-23T00:13:19.313Z,95.39
2017-12-23T00:15:47.603Z,95.36
2017-12-23T00:18:15.819Z,94.81
2017-12-23T00:20:44.109Z,95.01
2017-12-23T00:23:12.412Z,95.38
2017-12-23T00:25:40.647Z,95.42
2017-12-23T00:28:08.948Z,95.14
2017-12-23T00:30:37.183Z,94.72
2017-12-23T00:33:05.480Z,94.45
2017-12-23T00:35:33.769Z,94.29
2017-12-23T00:38:02.054Z,94.80
2017-12-23T00:40:30.478Z,94.27
2017-12-23T00:42:58.810Z,94.62
2017-12-23T00:45:27.054Z,95.01
2017-12-23T00:47:55.306Z,95.01
2017-12-23T00:50:23.538Z,95.24
2017-12-23T00:52:51.811Z,95.17
2017-12-23T00:55:20.051Z,95.33
2017-12-23T00:57:48.322Z,95.20
2017-12-23T01:00:16.567Z,94.87
2017-12-23T01:02:44.819Z,95.06
2017-12-23T01:05:13.827Z,95.07
2017-12-23T01:07:42.852Z,94.73
2017-12-23T01:10:11.091Z,94.46
2017-12-23T01:12:39.347Z,94.78
2017-12-23T01:15:07.587Z,94.49
2017-12-23T01:17:35.908Z,94.57
2017-12-23T01:20:04.948Z,94.65
2017-12-23T01:22:33.256Z,94.86
2017-12-23T01:25:01.520Z,94.75
2017-12-23T01:27:29.834Z,94.79
2017-12-23T01:29:58.078Z,94.33
2017-12-23T01:32:26.331Z,94.17
2017-12-23T01:34:54.575Z,94.25
2017-12-23T01:37:22.847Z,94.25
2017-12-23T01:39:51.094Z,94.23
2017-12-23T01:42:19.339Z,94.00
2017-12-23T01:44:47.597Z,93.89
2017-12-23T01:47:15.855Z,94.09
2017-12-23T01:49:44.133Z,94.18
2017-12-23T01:52:12.369Z,94.27
2017-12-23T01:54:41.383Z,94.39
2017-12-23T01:57:09.634Z,94.54
2017-12-23T01:59:37.893Z,94.20
2017-12-23T02:02:06.896Z,94.28
2017-12-23T02:04:35.947Z,94.04
2017-12-23T02:07:04.198Z,93.48
2017-12-23T02:09:32.470Z,93.59
2017-12-23T02:12:00.850Z,93.55
2017-12-23T02:14:29.111Z,93.59
2017-12-23T02:16:57.351Z,93.78
2017-12-23T02:19:25.600Z,93.73
2017-12-23T02:21:54.602Z,93.20
2017-12-23T02:24:23.628Z,93.07
2017-12-23T02:26:51.879Z,93.19
2017-12-23T02:29:20.162Z,93.04
2017-12-23T02:31:48.402Z,93.06
2017-12-23T02:34:16.663Z,92.55
2017-12-23T02:36:45.678Z,92.50
2017-12-23T02:39:14.700Z,93.22
2017-12-23T02:41:42.951Z,93.19
2017-12-23T02:44:11.207Z,93.10
2017-12-23T02:46:39.443Z,93.37
2017-12-23T02:49:08.465Z,92.98
2017-12-23T02:51:37.463Z,93.44
2017-12-23T02:54:06.474Z,93.76
2017-12-23T02:56:34.747Z,93.87
2017-12-23T02:59:03.787Z,94.06
2017-12-23T03:01:32.163Z,94.12
2017-12-23T03:04:01.231Z,93.40
2017-12-23T03:06:29.480Z,93.65
2017-12-23T03:08:57.758Z,93.77
2017-12-23T03:11:26.007Z,93.95
2017-12-23T03:13:54.235Z,93.94
2017-12-23T03:16:22.486Z,94.09
2017-12-23T03:18:50.810Z,93.81
2017-12-23T03:21:20.466Z,93.41
2017-12-23T03:23:48.751Z,93.94
2017-12-23T03:26:17.011Z,93.84
2017-12-23T03:28:45.247Z,94.03
2017-12-23T03:31:13.495Z,93.87
2017-12-23T03:33:41.735Z,93.52
2017-12-23T03:36:09.982Z,94.04
2017-12-23T03:38:38.224Z,94.28
2017-12-23T03:41:06.478Z,94.34
2017-12-23T03:43:34.755Z,94.15
2017-12-23T03:46:03.013Z,93.97
2017-12-23T03:48:32.035Z,93.90
2017-12-23T03:51:00.312Z,93.64
2017-12-23T03:53:28.560Z,92.95
2017-12-23T03:55:56.808Z,93.00
2017-12-23T03:58:25.035Z,93.64
2017-12-23T04:00:53.287Z,93.02
2017-12-23T04:03:21.534Z,93.32
2017-12-23T04:05:50.583Z,93.30
2017-12-23T04:08:19.463Z,93.45
2017-12-23T04:10:47.720Z,93.87
2017-12-23T04:13:16.014Z,93.88
2017-12-23T04:15:45.038Z,93.80
2017-12-23T04:18:14.050Z,93.77
2017-12-23T04:20:42.303Z,94.03
2017-12-23T04:23:10.555Z,94.13
2017-12-23T04:25:38.808Z,93.71
2017-12-23T04:28:07.052Z,94.30
2017-12-23T04:30:35.359Z,93.69
2017-12-23T04:33:03.622Z,94.16
2017-12-23T04:35:31.973Z,94.45
2017-12-23T04:38:00.254Z,94.49
2017-12-23T04:40:28.504Z,94.15
2017-12-23T04:42:56.756Z,94.38
2017-12-23T04:45:24.995Z,94.03
2017-12-23T04:47:54.016Z,94.30
2017-12-23T04:50:22.263Z,93.95
2017-12-23T04:52:50.566Z,93.87
2017-12-23T04:55:18.874Z,93.87
2017-12-23T04:57:47.894Z,94.18
2017-12-23T05:00:16.907Z,94.71
2017-12-23T05:02:45.164Z,94.54
2017-12-23T05:05:13.403Z,94.91
2017-12-23T05:07:41.649Z,94.75
2017-12-23T05:10:10.659Z,95.17
2017-12-23T05:12:39.738Z,94.74
2017-12-23T05:15:07.923Z,94.96
2017-12-23T05:17:36.183Z,95.07
2017-12-23T05:20:04.454Z,94.94
2017-12-23T05:22:32.750Z,94.83
2017-12-23T05:25:01.034Z,94.86
2017-12-23T05:27:29.291Z,95.01
2017-12-23T05:29:58.290Z,95.21
2017-12-23T05:32:27.323Z,94.98
2017-12-23T05:34:55.558Z,95.11
2017-12-23T05:37:23.819Z,94.92
2017-12-23T05:39:52.066Z,94.53
2017-12-23T05:42:21.129Z,94.08
2017-12-23T05:44:49.443Z,93.94
2017-12-23T05:47:17.737Z,93.79
2017-12-23T05:49:46.003Z,94.18
2017-12-23T05:52:14.258Z,94.13
2017-12-23T05:54:42.506Z,93.79
2017-12-23T05:57:10.767Z,94.04
2017-12-23T05:59:39.006Z,93.86
2017-12-23T06:02:07.312Z,93.87
2017-12-23T06:04:35.604Z,93.28
2017-12-23T06:07:03.895Z,93.42
2017-12-23T06:09:32.205Z,93.53
2017-12-23T06:12:00.588Z,93.67
2017-12-23T06:14:28.883Z,93.71
2017-12-23T06:16:57.124Z,93.35
2017-12-23T06:19:26.514Z,92.81
2017-12-23T06:21:54.764Z,93.04
2017-12-23T06:24:23.042Z,93.12
2017-12-23T06:26:51.297Z,92.35
2017-12-23T06:29:19.573Z,91.98
2017-12-23T06:31:47.827Z,91.66
2017-12-23T06:34:16.088Z,91.96
2017-12-23T06:36:44.338Z,91.61
2017-12-23T06:39:12.592Z,91.50
2017-12-23T06:41:40.844Z,91.61
2017-12-23T06:44:09.866Z,91.44
2017-12-23T06:46:38.192Z,90.87
2017-12-23T06:49:06.774Z,91.32
2017-12-23T06:51:35.134Z,91.14
2017-12-23T06:54:04.676Z,91.75
2017-12-23T06:56:34.920Z,91.20
2017-12-23T06:59:03.218Z,91.66
2017-12-23T07:01:31.495Z,92.44
2017-12-23T07:03:59.783Z,92.19
2017-12-23T07:06:28.029Z,91.92
2017-12-23T07:08:57.090Z,92.11
2017-12-23T07:11:25.334Z,91.73
2017-12-23T07:13:53.589Z,92.49
2017-12-23T07:16:22.604Z,92.63
2017-12-23T07:18:50.920Z,91.58
2017-12-23T07:21:19.936Z,91.62
2017-12-23T07:23:48.965Z,91.83
2017-12-23T07:26:17.225Z,92.87
2017-12-23T07:28:46.247Z,91.85
2017-12-23T07:31:14.506Z,91.48
2017-12-23T07:33:42.747Z,91.13
2017-12-23T07:36:11.079Z,91.43
2017-12-23T07:38:39.314Z,91.77
2017-12-23T07:41:08.340Z,90.93
2017-12-23T07:43:36.632Z,90.82
2017-12-23T07:46:04.912Z,90.60
2017-12-23T07:48:33.174Z,90.37
2017-12-23T07:51:01.494Z,90.16
2017-12-23T07:53:29.764Z,89.73
2017-12-23T07:55:58.051Z,90.06
2017-12-23T07:58:26.290Z,89.73
2017-12-23T08:00:54.772Z,89.45
2017-12-23T08:03:23.795Z,89.80
2017-12-23T08:05:52.098Z,88.87
2017-12-23T08:08:21.127Z,88.63
2017-12-23T08:10:49.436Z,88.45
2017-12-23T08:13:17.697Z,90.02
2017-12-23T08:15:46.723Z,86.41
2017-12-23T08:18:14.963Z,86.59
2017-12-23T08:20:43.218Z,86.53
2017-12-23T08:23:11.463Z,86.42
2017-12-23T08:25:40.503Z,86.86
2017-12-23T08:28:08.760Z,87.23
2017-12-23T08:30:37.808Z,86.53
2017-12-23T08:33:06.086Z,85.68
2017-12-23T08:35:34.454Z,85.91
2017-12-23T08:38:03.467Z,86.05
2017-12-23T08:40:31.808Z,86.34
2017-12-23T08:43:00.193Z,85.54
2017-12-23T08:45:29.232Z,85.90
2017-12-23T08:47:58.256Z,85.18
2017-12-23T08:50:27.279Z,86.04
2017-12-23T08:52:55.519Z,85.51
2017-12-23T08:55:23.789Z,85.49
2017-12-23T08:57:52.082Z,85.63
2017-12-23T09:00:20.419Z,85.51
2017-12-23T09:02:49.470Z,86.05
2017-12-23T09:05:17.722Z,86.86
2017-12-23T09:07:46.746Z,86.01
2017-12-23T09:10:14.988Z,85.07
2017-12-23T09:12:43.247Z,85.31
2017-12-23T09:15:11.499Z,85.37
2017-12-23T09:17:39.783Z,85.11
2017-12-23T09:20:08.819Z,85.30
2017-12-23T09:22:37.126Z,85.73
2017-12-23T09:28:05.479Z,85.47
2017-12-23T09:30:33.790Z,85.37
2017-12-23T09:33:02.083Z,84.21
2017-12-23T09:35:31.154Z,84.38
2017-12-23T09:37:59.411Z,84.13
2017-12-23T09:40:28.447Z,84.25
2017-12-23T09:42:56.690Z,84.22
2017-12-23T09:45:24.934Z,84.19
2017-12-23T09:47:53.181Z,84.12
2017-12-23T09:50:21.426Z,82.65
2017-12-23T09:52:51.058Z,82.84
2017-12-23T09:55:20.090Z,83.07
2017-12-23T09:57:48.469Z,83.12
2017-12-23T10:00:17.481Z,83.23
2017-12-23T10:02:45.746Z,83.02
2017-12-23T10:05:14.763Z,83.10
2017-12-23T10:07:43.782Z,82.32
2017-12-23T10:10:12.031Z,82.24
2017-12-23T10:12:40.310Z,81.77
2017-12-23T10:15:08.607Z,82.19
2017-12-23T10:17:36.862Z,81.88
2017-12-23T10:20:05.157Z,82.52
2017-12-23T10:22:33.474Z,81.14
2017-12-23T10:25:01.717Z,82.09
2017-12-23T10:27:30.094Z,81.56
2017-12-23T10:29:59.151Z,81.26
2017-12-23T10:32:28.120Z,81.96
2017-12-23T10:34:56.379Z,82.39
2017-12-23T10:37:25.417Z,83.50
2017-12-23T10:39:53.671Z,83.27
2017-12-23T10:42:22.705Z,82.68
2017-12-23T10:44:50.993Z,83.39
2017-12-23T10:47:19.296Z,83.79
2017-12-23T10:49:47.535Z,83.81
2017-12-23T10:52:16.830Z,84.45
2017-12-23T10:54:45.067Z,85.02
2017-12-23T10:57:13.355Z,86.38
2017-12-23T10:59:41.607Z,86.12
2017-12-23T11:02:09.858Z,85.93
2017-12-23T11:04:38.119Z,87.19
2017-12-23T11:07:06.375Z,86.85
2017-12-23T11:09:35.648Z,87.44
2017-12-23T11:12:03.929Z,87.14
2017-12-23T11:14:32.253Z,87.07
2017-12-23T11:17:00.554Z,87.20
2017-12-23T11:19:28.807Z,88.74
2017-12-23T11:21:57.060Z,88.70
2017-12-23T11:24:26.076Z,89.52
2017-12-23T11:26:54.324Z,89.72
2017-12-23T11:29:22.579Z,89.37
2017-12-23T11:31:50.839Z,90.16
2017-12-23T11:34:19.106Z,89.92
2017-12-23T11:36:48.137Z,89.96
2017-12-23T11:39:16.386Z,89.82
2017-12-23T11:41:44.627Z,90.04
2017-12-23T11:44:12.890Z,90.03
2017-12-23T11:46:41.967Z,90.39
2017-12-23T11:49:10.224Z,88.87
2017-12-23T11:51:38.468Z,89.80
2017-12-23T11:54:07.512Z,89.32
2017-12-23T11:56:35.779Z,88.90
2017-12-23T11:59:04.808Z,88.52
2017-12-23T12:01:33.100Z,88.60
2017-12-23T12:04:01.424Z,88.48
2017-12-23T12:06:29.686Z,87.92
2017-12-23T12:08:57.956Z,87.57
2017-12-23T12:11:26.198Z,87.41
2017-12-23T12:13:54.493Z,88.24
2017-12-23T12:16:22.731Z,88.29
2017-12-23T12:18:51.745Z,88.29
2017-12-23T12:21:20.049Z,88.88
2017-12-23T12:23:48.329Z,88.34
2017-12-23T12:26:16.578Z,88.04
2017-12-23T12:28:45.606Z,88.39
2017-12-23T12:31:13.871Z,87.79
2017-12-23T12:33:42.877Z,87.48
2017-12-23T12:36:11.892Z,87.54
2017-12-23T12:38:40.956Z,85.90
2017-12-23T12:41:09.168Z,86.10
2017-12-23T12:43:37.409Z,85.59
2017-12-23T12:46:06.431Z,86.62
2017-12-23T12:48:35.646Z,86.36
2017-12-23T12:51:04.123Z,85.98
2017-12-23T12:53:32.497Z,86.13
2017-12-23T12:56:00.806Z,86.17
2017-12-23T12:58:29.090Z,85.72
2017-12-23T13:00:57.394Z,85.23
2017-12-23T13:03:25.635Z,85.70
2017-12-23T13:05:53.887Z,85.72
2017-12-23T13:08:22.143Z,85.35
2017-12-23T13:10:50.406Z,85.01
2017-12-23T13:13:18.743Z,85.09
2017-12-23T13:15:47.794Z,85.43
2017-12-23T13:18:16.049Z,85.06
2017-12-23T13:20:44.311Z,85.12
2017-12-23T13:23:13.316Z,83.54
2017-12-23T13:25:41.581Z,80.51
2017-12-23T13:28:09.830Z,80.82
2017-12-23T13:30:38.087Z,82.36
2017-12-23T13:33:06.348Z,83.15
2017-12-23T13:35:34.746Z,82.15
2017-12-23T13:38:03.008Z,82.46
2017-12-23T13:40:32.122Z,82.10
2017-12-23T13:43:00.471Z,81.80
2017-12-23T13:45:28.744Z,81.51
2017-12-23T13:47:56.984Z,81.98
2017-12-23T13:50:26.007Z,81.87
2017-12-23T13:52:54.266Z,82.52
2017-12-23T13:55:22.518Z,81.53
2017-12-23T13:57:50.860Z,80.96
2017-12-23T14:00:19.915Z,82.11
2017-12-23T14:02:48.174Z,82.71
2017-12-23T14:05:16.430Z,81.35
2017-12-23T14:07:44.684Z,81.40
2017-12-23T14:10:12.943Z,82.70
2017-12-23T14:12:41.196Z,81.70
2017-12-23T14:15:10.215Z,82.50
2017-12-23T14:17:39.516Z,83.22
2017-12-23T14:20:07.763Z,83.26
2017-12-23T14:22:36.066Z,82.84
2017-12-23T14:25:04.351Z,83.71
2017-12-23T14:27:32.745Z,83.57
2017-12-23T14:30:01.130Z,84.10
2017-12-23T14:32:29.461Z,83.86
2017-12-23T14:34:57.735Z,84.73
2017-12-23T14:37:25.994Z,84.00
2017-12-23T14:39:54.277Z,82.65
2017-12-23T14:42:22.539Z,83.36
2017-12-23T14:44:51.543Z,82.94
2017-12-23T14:47:19.818Z,83.13
2017-12-23T14:49:48.833Z,83.37
2017-12-23T14:52:17.852Z,82.53
2017-12-23T14:54:46.112Z,82.99
2017-12-23T14:57:14.370Z,82.80
2017-12-23T14:59:42.610Z,82.54
2017-12-23T15:02:10.858Z,83.63
2017-12-23T15:04:39.100Z,83.15
2017-12-23T15:07:07.358Z,82.43
2017-12-23T15:09:35.702Z,82.67
2017-12-23T15:12:04.019Z,82.05
2017-12-23T15:14:32.339Z,82.03
2017-12-23T15:17:00.770Z,82.00
2017-12-23T15:19:29.034Z,81.59
2017-12-23T15:21:58.050Z,82.19
2017-12-23T15:24:26.324Z,82.83
2017-12-23T15:26:54.575Z,82.51
2017-12-23T15:29:22.859Z,80.86
2017-12-23T15:31:51.161Z,81.48
2017-12-23T15:34:19.486Z,81.06
2017-12-23T15:36:47.749Z,81.08
2017-12-23T15:39:16.871Z,81.19
2017-12-23T15:41:45.870Z,81.93
2017-12-23T15:44:14.884Z,81.63
2017-12-23T15:46:43.934Z,82.56
2017-12-23T15:49:12.181Z,82.01
2017-12-23T15:51:40.454Z,82.67
2017-12-23T15:54:09.485Z,83.17
2017-12-23T15:56:37.738Z,83.76
2017-12-23T15:59:06.026Z,82.46
2017-12-23T16:01:34.338Z,82.39
2017-12-23T16:04:03.574Z,82.30
2017-12-23T16:06:32.049Z,82.47
2017-12-23T16:09:01.513Z,82.77
2017-12-23T16:11:29.804Z,83.20
2017-12-23T16:13:58.067Z,82.59
2017-12-23T16:16:26.341Z,82.04
2017-12-23T16:18:55.402Z,82.27
2017-12-23T16:21:23.688Z,82.00
2017-12-23T16:23:51.936Z,82.29
2017-12-23T16:26:20.323Z,82.92
2017-12-23T16:28:49.406Z,82.27
2017-12-23T16:31:17.658Z,82.43
2017-12-23T16:33:45.939Z,82.50
2017-12-23T16:36:14.222Z,82.36
2017-12-23T16:38:42.490Z,82.93
2017-12-23T16:41:10.739Z,83.30
2017-12-23T16:43:39.090Z,81.21
2017-12-23T16:46:07.392Z,84.76
2017-12-23T16:48:35.671Z,81.20
2017-12-23T16:51:04.046Z,82.39
2017-12-23T16:53:32.445Z,82.61
2017-12-23T16:56:00.818Z,82.60
2017-12-23T16:58:29.082Z,82.91
2017-12-23T17:00:58.098Z,82.28
2017-12-23T17:03:27.135Z,81.17
2017-12-23T17:05:55.424Z,80.67
2017-12-23T17:08:23.671Z,80.96
2017-12-23T17:10:52.694Z,81.62
2017-12-23T17:13:21.714Z,80.80
2017-12-23T17:15:49.979Z,80.57
2017-12-23T17:18:19.004Z,81.15
2017-12-23T17:20:47.298Z,81.27
2017-12-23T17:23:15.603Z,81.61
2017-12-23T17:25:43.922Z,81.79
2017-12-23T17:28:17.962Z,81.69
2017-12-23T17:30:46.291Z,82.46
2017-12-23T17:33:14.531Z,81.55
2017-12-23T17:35:42.798Z,81.78
2017-12-23T17:38:11.098Z,82.00
2017-12-23T17:40:39.343Z,82.49
2017-12-23T17:43:07.601Z,82.56
2017-12-23T17:45:35.926Z,82.72
2017-12-23T17:48:04.981Z,83.31
2017-12-23T17:50:33.357Z,83.40
2017-12-23T17:53:01.629Z,83.93
2017-12-23T17:55:29.977Z,83.85
2017-12-23T17:57:58.267Z,83.64
2017-12-23T18:00:26.589Z,83.09
2017-12-23T18:02:54.902Z,83.49
2017-12-23T18:05:23.229Z,83.32
2017-12-23T18:07:51.470Z,83.14
2017-12-23T18:10:19.749Z,82.90
2017-12-23T18:12:48.051Z,83.19
2017-12-23T18:15:16.356Z,82.87
2017-12-23T18:17:44.602Z,83.09
2017-12-23T18:20:13.630Z,83.57
2017-12-23T18:22:41.910Z,83.37
2017-12-23T18:25:10.185Z,83.84
2017-12-23T18:27:39.248Z,83.25
2017-12-23T18:30:07.544Z,83.70
2017-12-23T18:32:35.851Z,83.57
2017-12-23T18:35:04.090Z,83.78
2017-12-23T18:37:32.442Z,84.07
2017-12-23T18:40:01.523Z,83.18
2017-12-23T18:42:29.842Z,83.97
2017-12-23T18:44:58.894Z,83.97
2017-12-23T18:47:27.159Z,84.33
2017-12-23T18:49:55.400Z,84.58
2017-12-23T18:52:23.661Z,84.57
2017-12-23T18:54:51.945Z,84.60
2017-12-23T18:57:20.204Z,84.48
2017-12-23T18:59:48.463Z,84.13
2017-12-23T19:02:16.778Z,84.09
2017-12-23T19:04:45.784Z,84.19
2017-12-23T19:07:15.230Z,84.51
2017-12-23T19:09:43.467Z,84.38
2017-12-23T19:12:11.769Z,84.70
2017-12-23T19:14:40.817Z,84.75
2017-12-23T19:17:09.096Z,85.04
2017-12-23T19:19:37.326Z,84.98
2017-12-23T19:22:05.614Z,85.18
2017-12-23T19:24:33.977Z,85.46
2017-12-23T19:27:02.313Z,84.84
2017-12-23T19:29:30.635Z,85.46
2017-12-23T19:31:58.928Z,85.38
2017-12-23T19:34:27.233Z,85.38
2017-12-23T19:36:55.538Z,85.53
2017-12-23T19:39:23.830Z,84.86
2017-12-23T19:41:52.122Z,84.72
2017-12-23T19:44:20.421Z,84.25
2017-12-23T19:46:48.781Z,84.66
2017-12-23T19:49:17.069Z,85.33
2017-12-23T19:51:45.366Z,85.41
2017-12-23T19:54:13.673Z,85.21
2017-12-23T19:56:41.995Z,84.97
2017-12-23T19:59:10.317Z,84.63
2017-12-23T20:01:38.597Z,84.44
2017-12-23T20:04:06.895Z,84.71
2017-12-23T20:06:35.218Z,84.58
2017-12-23T20:09:03.673Z,84.11
2017-12-23T20:11:32.006Z,84.36
2017-12-23T20:14:00.308Z,84.79
2017-12-23T20:16:28.587Z,84.68
2017-12-23T20:18:56.907Z,83.76
2017-12-23T20:21:25.209Z,82.76
2017-12-23T20:23:54.269Z,82.81
2017-12-23T20:26:22.574Z,83.05
2017-12-23T20:28:50.884Z,83.09
2017-12-23T20:31:19.969Z,83.22
2017-12-23T20:33:48.354Z,83.71
2017-12-23T20:36:17.428Z,83.40
2017-12-23T20:38:45.734Z,83.80
2017-12-23T20:41:14.100Z,83.82
2017-12-23T20:43:42.424Z,83.43
2017-12-23T20:46:10.714Z,83.65
2017-12-23T20:48:39.051Z,83.56
2017-12-23T20:51:08.151Z,83.78
2017-12-23T20:53:37.260Z,84.12
2017-12-23T20:56:05.569Z,83.62
2017-12-23T20:58:34.680Z,83.50
2017-12-23T21:01:03.096Z,83.47
2017-12-23T21:03:31.450Z,83.73
2017-12-23T21:06:00.573Z,83.86
2017-12-23T21:08:29.237Z,83.66
2017-12-23T21:10:57.482Z,84.33
2017-12-23T21:13:25.791Z,84.35
2017-12-23T21:15:54.112Z,84.08
2017-12-23T21:18:22.367Z,84.19
2017-12-23T21:20:50.693Z,84.56
2017-12-23T21:23:18.991Z,84.24
2017-12-23T21:25:48.212Z,85.06
2017-12-23T21:28:16.526Z,83.64
2017-12-23T21:30:44.814Z,83.59
2017-12-23T21:33:13.135Z,83.69
2017-12-23T21:35:41.487Z,83.68
2017-12-23T21:38:09.798Z,83.69
2017-12-23T21:40:38.139Z,83.57
2017-12-23T21:43:06.419Z,83.14
2017-12-23T21:45:34.812Z,83.50
2017-12-23T21:48:03.422Z,83.34
2017-12-23T21:50:32.662Z,83.14
2017-12-23T21:53:01.076Z,83.02
2017-12-23T21:55:29.397Z,82.88
2017-12-23T21:57:58.423Z,82.93
2017-12-23T22:00:27.501Z,82.70
2017-12-23T22:02:55.782Z,82.58
2017-12-23T22:05:24.083Z,82.30
2017-12-23T22:07:53.179Z,81.90
2017-12-23T22:10:23.238Z,81.83
2017-12-23T22:12:51.534Z,82.24
2017-12-23T22:15:20.060Z,82.53
2017-12-23T22:17:48.490Z,82.87
2017-12-23T22:20:17.780Z,83.04
2017-12-23T22:22:46.074Z,82.82
2017-12-23T22:25:14.397Z,83.09
2017-12-23T22:27:42.946Z,82.47
2017-12-23T22:30:11.277Z,82.18
2017-12-23T22:32:39.561Z,81.58
2017-12-23T22:35:07.874Z,81.91
2017-12-23T22:37:36.182Z,81.74
2017-12-23T22:40:04.593Z,82.21
2017-12-23T22:42:34.701Z,82.47
2017-12-23T22:45:03.810Z,81.61
2017-12-23T22:47:32.185Z,82.21
2017-12-23T22:50:00.532Z,82.07
2017-12-23T22:52:28.914Z,82.01
2017-12-23T22:54:57.201Z,82.06
2017-12-23T22:57:25.503Z,81.44
2017-12-23T22:59:53.826Z,80.92
2017-12-23T23:02:22.128Z,81.08
2017-12-23T23:04:50.476Z,82.01
2017-12-23T23:07:18.934Z,81.62
2017-12-23T23:09:48.003Z,81.68
2017-12-23T23:12:16.255Z,81.51
2017-12-23T23:14:44.537Z,82.16
2017-12-23T23:17:12.838Z,82.11
2017-12-23T23:19:41.134Z,81.44
2017-12-23T23:22:09.423Z,81.26
2017-12-23T23:24:37.660Z,82.13
2017-12-23T23:27:05.964Z,81.96
2017-12-23T23:29:35.075Z,81.40
2017-12-23T23:32:03.432Z,81.65
2017-12-23T23:34:32.569Z,81.12
2017-12-23T23:37:01.716Z,80.76
2017-12-23T23:39:30.072Z,80.81
2017-12-23T23:41:59.142Z,81.04
2017-12-23T23:44:27.401Z,80.92
2017-12-23T23:46:55.658Z,81.48
2017-12-23T23:49:24.663Z,82.09
2017-12-23T23:51:53.729Z,81.68
2017-12-23T23:54:21.962Z,81.26
2017-12-23T23:56:50.315Z,81.08
2017-12-23T23:59:18.636Z,81.68
